Time;durP1;ratioP1;P1;durP2;ratioP2;P2;SDS_P1;SDS_P2;PMS_P1;PMS_P2;Temp;Humidity;BMP_temperature;BMP_pressure;BME280_temperature;BME280_humidity;BME280_pressure;Samples;Min_cycle;Max_cycle;Signal;HPM_P1;HPM_P2
2024/02/12 00:02:18;;;;;;;5.18;1.77;;;;;;;16.17;53.54;98383.47;5032515;28;20112;-38
2024/02/12 00:04:49;;;;;;;9.15;1.90;;;;;;;16.19;53.08;98373.28;5032239;28;20390;-37
2024/02/12 00:07:16;;;;;;;8.90;1.80;;;;;;;16.39;51.46;98383.13;5032487;28;20128;-39
2024/02/12 00:09:43;;;;;;;5.93;1.80;;;;;;;16.79;50.01;98368.72;5032750;28;20025;-36
2024/02/12 00:12:08;;;;;;;4.95;1.35;;;;;;;16.92;48.95;98372.69;5032095;28;20096;-37
2024/02/12 00:14:33;;;;;;;8.45;1.65;;;;;;;16.66;49.05;98372.00;5032108;28;20091;-39
2024/02/12 00:17:04;;;;;;;7.47;1.60;;;;;;;16.77;49.19;98367.38;5031712;28;20032;-39
2024/02/12 00:19:31;;;;;;;6.63;1.48;;;;;;;16.70;49.40;98393.75;5031925;28;20523;-39
2024/02/12 00:21:58;;;;;;;5.60;1.30;;;;;;;16.74;48.17;98355.31;5032253;28;20105;-39
2024/02/12 00:24:24;;;;;;;5.88;1.73;;;;;;;16.68;49.90;98361.78;5031992;28;20036;-37
2024/02/12 00:26:50;;;;;;;6.90;1.80;;;;;;;16.59;50.99;98375.00;5031772;28;20025;-39
2024/02/12 00:29:15;;;;;;;6.57;1.10;;;;;;;16.67;48.95;98378.97;5022521;28;20022;-38
2024/02/12 00:31:42;;;;;;;5.32;1.10;;;;;;;16.74;47.80;98362.56;5012076;28;20552;-39
2024/02/12 00:34:09;;;;;;;6.70;1.70;;;;;;;17.03;47.52;98362.69;5012234;28;20022;-39
2024/02/12 00:36:35;;;;;;;5.90;1.30;;;;;;;17.23;47.09;98371.66;5012026;28;20064;-39
2024/02/12 00:39:09;;;;;;;6.05;1.80;;;;;;;17.02;49.29;98379.91;5011866;28;20069;-39
2024/02/12 00:41:34;;;;;;;7.10;1.45;;;;;;;16.88;51.01;98373.53;5011890;28;20048;-39
2024/02/12 00:44:03;;;;;;;5.85;1.75;;;;;;;17.04;51.51;98374.22;5027412;28;20446;-37
2024/02/12 00:46:29;;;;;;;5.03;1.70;;;;;;;16.55;52.92;98371.25;5031145;28;20112;-39
2024/02/12 00:48:56;;;;;;;7.80;1.88;;;;;;;16.58;53.48;98375.25;5031600;28;20120;-39
2024/02/12 00:51:22;;;;;;;7.93;2.00;;;;;;;16.18;55.00;98363.59;5031407;28;20449;-39
2024/02/12 00:53:47;;;;;;;7.63;1.80;;;;;;;16.40;54.37;98356.00;5031606;28;20036;-39
2024/02/12 00:56:15;;;;;;;5.63;1.33;;;;;;;16.47;54.69;98347.66;5031132;28;20461;-38
2024/02/12 00:58:41;;;;;;;4.55;1.52;;;;;;;15.88;57.01;98338.50;5030898;28;20021;-37
2024/02/12 01:01:07;;;;;;;8.75;1.75;;;;;;;15.70;57.09;98337.13;5031196;28;20112;-37
2024/02/12 01:03:35;;;;;;;4.43;1.60;;;;;;;15.64;58.22;98341.72;5031107;28;20108;-37
2024/02/12 01:06:01;;;;;;;5.78;1.92;;;;;;;15.64;57.93;98322.94;5031235;28;20029;-38
2024/02/12 01:08:26;;;;;;;6.05;1.70;;;;;;;15.58;58.09;98317.88;5031183;28;20075;-39
2024/02/12 01:10:52;;;;;;;5.78;1.52;;;;;;;15.88;57.34;98327.75;5031302;28;20074;-39
2024/02/12 01:13:18;;;;;;;6.72;1.92;;;;;;;15.73;57.20;98322.41;5030942;28;20014;-39
2024/02/12 01:15:49;;;;;;;6.32;2.00;;;;;;;15.69;57.21;98329.34;5031006;28;20029;-36
2024/02/12 01:18:15;;;;;;;6.70;2.38;;;;;;;15.70;57.58;98317.56;5030534;28;20041;-40
2024/02/12 01:20:41;;;;;;;6.85;2.30;;;;;;;15.60;58.00;98313.84;5030597;28;20052;-40
2024/02/12 01:23:06;;;;;;;7.10;1.83;;;;;;;15.33;59.14;98313.34;5030594;28;20094;-39
2024/02/12 01:25:32;;;;;;;4.68;1.83;;;;;;;15.05;60.12;98304.75;5031152;28;20032;-37
2024/02/12 01:28:00;;;;;;;7.97;2.13;;;;;;;14.96;59.99;98320.53;5030635;28;20126;-38
2024/02/12 01:30:26;;;;;;;7.05;1.80;;;;;;;15.37;59.49;98322.44;5030465;28;20029;-38
2024/02/12 01:32:53;;;;;;;4.72;1.50;;;;;;;15.62;57.87;98311.69;5030959;28;20088;-37
2024/02/12 01:35:20;;;;;;;4.65;1.40;;;;;;;15.44;58.89;98301.53;5021741;28;20508;-39
2024/02/12 01:37:46;;;;;;;4.40;1.67;;;;;;;15.64;58.11;98300.69;5011678;28;20036;-37
2024/02/12 01:40:11;;;;;;;7.20;1.80;;;;;;;15.27;58.88;98295.63;5011505;28;20323;-37
2024/02/12 01:42:37;;;;;;;6.28;1.85;;;;;;;14.99;60.62;98298.59;5011040;28;20029;-39
2024/02/12 01:45:13;;;;;;;6.22;1.73;;;;;;;14.80;61.13;98282.25;5012980;28;20026;-39
2024/02/12 01:47:41;;;;;;;3.95;1.45;;;;;;;14.89;61.40;98284.38;5030973;28;20026;-37
2024/02/12 01:50:08;;;;;;;5.57;1.60;;;;;;;15.01;61.90;98279.59;5030843;28;20091;-40
2024/02/12 01:52:33;;;;;;;5.90;1.70;;;;;;;15.04;61.23;98268.31;5031322;28;20017;-39
2024/02/12 01:55:03;;;;;;;4.70;1.70;;;;;;;14.94;62.40;98276.38;5030938;28;20021;-39
2024/02/12 01:57:33;;;;;;;6.28;1.70;;;;;;;14.81;63.46;98269.66;5030964;28;20036;-40
2024/02/12 01:59:59;;;;;;;4.95;1.40;;;;;;;14.65;63.42;98250.91;5030799;28;20029;-41
2024/02/12 02:02:25;;;;;;;6.53;1.73;;;;;;;14.70;64.16;98234.06;5030618;28;20029;-39
2024/02/12 02:04:53;;;;;;;5.57;1.73;;;;;;;15.10;63.29;98237.78;5031016;28;20021;-39
2024/02/12 02:07:19;;;;;;;5.88;1.67;;;;;;;15.03;63.21;98243.41;5029751;28;20359;-35
2024/02/12 02:09:46;;;;;;;6.68;1.50;;;;;;;14.95;64.02;98235.13;5030490;28;20052;-38
2024/02/12 02:12:14;;;;;;;6.35;1.60;;;;;;;14.70;65.43;98234.06;5030947;28;20013;-39
2024/02/12 02:14:39;;;;;;;9.18;2.00;;;;;;;14.54;65.77;98227.03;5030835;28;20026;-39
2024/02/12 02:17:05;;;;;;;7.25;1.80;;;;;;;14.78;64.26;98236.19;5030448;28;20087;-37
2024/02/12 02:19:30;;;;;;;4.07;1.80;;;;;;;14.31;66.15;98237.16;5030701;28;20060;-40
2024/02/12 02:21:56;;;;;;;8.32;1.88;;;;;;;14.46;66.03;98236.38;5030713;28;20036;-37
2024/02/12 02:24:21;;;;;;;8.73;1.90;;;;;;;14.65;65.39;98242.06;5033227;28;20104;-39
2024/02/12 02:26:46;;;;;;;7.45;1.88;;;;;;;14.74;64.46;98255.75;5050557;28;20025;-37
2024/02/12 02:29:12;;;;;;;5.72;1.80;;;;;;;14.74;64.50;98275.28;5050629;28;20021;-38
2024/02/12 02:31:38;;;;;;;7.93;1.90;;;;;;;14.52;64.43;98282.72;5030501;28;20060;-36
2024/02/12 02:34:03;;;;;;;7.97;1.95;;;;;;;14.78;63.68;98286.25;5030866;28;20026;-40
2024/02/12 02:36:29;;;;;;;9.00;2.20;;;;;;;14.52;64.70;98288.06;5030731;28;20026;-40
2024/02/12 02:38:55;;;;;;;8.00;2.03;;;;;;;14.27;65.69;98289.59;5030509;28;20721;-40
2024/02/12 02:41:21;;;;;;;8.27;2.20;;;;;;;14.30;65.29;98291.75;5030401;28;20030;-38
2024/02/12 02:43:48;;;;;;;5.45;1.80;;;;;;;14.58;65.37;98305.75;5029958;28;20105;-39
2024/02/12 02:46:26;;;;;;;5.90;2.25;;;;;;;14.26;66.84;98296.03;5030412;28;20086;-39
2024/02/12 02:48:51;;;;;;;7.45;2.47;;;;;;;14.05;67.94;98313.84;5030172;28;20037;-37
2024/02/12 02:51:25;;;;;;;8.65;2.92;;;;;;;14.00;69.31;98313.84;5030154;28;20026;-39
2024/02/12 02:53:51;;;;;;;8.25;2.53;;;;;;;13.83;70.62;98308.69;5030758;28;20021;-39
2024/02/12 02:56:16;;;;;;;7.07;2.78;;;;;;;13.65;71.18;98296.53;5030500;28;20020;-36
2024/02/12 02:58:42;;;;;;;5.38;2.55;;;;;;;13.14;72.51;98298.84;5030218;28;20385;-36
2024/02/12 03:01:09;;;;;;;5.75;2.42;;;;;;;13.21;71.82;98294.06;5028798;28;20021;-37
2024/02/12 03:03:34;;;;;;;6.85;2.60;;;;;;;13.15;71.22;98313.78;5030375;28;20032;-37
2024/02/12 03:06:00;;;;;;;5.97;2.35;;;;;;;13.18;71.23;98318.63;5030121;28;20033;-39
2024/02/12 03:08:25;;;;;;;5.65;2.40;;;;;;;13.20;70.45;98300.50;5030290;28;20021;-39
2024/02/12 03:10:53;;;;;;;7.70;2.38;;;;;;;13.34;70.11;98316.91;5030290;28;20114;-39
2024/02/12 03:13:19;;;;;;;6.63;2.22;;;;;;;12.99;71.59;98312.88;5029904;28;20033;-39
2024/02/12 03:15:44;;;;;;;4.90;2.13;;;;;;;13.21;70.92;98321.63;5030147;28;20029;-40
2024/02/12 03:18:10;;;;;;;4.55;2.30;;;;;;;12.88;71.82;98336.00;5029634;28;20073;-39
2024/02/12 03:20:37;;;;;;;5.28;2.38;;;;;;;12.62;72.82;98324.25;5031406;28;20106;-38
2024/02/12 03:23:02;;;;;;;5.38;2.20;;;;;;;12.64;73.01;98320.28;5033296;28;20501;-37
2024/02/12 03:25:28;;;;;;;4.72;2.00;;;;;;;12.60;72.77;98313.03;5033415;28;20021;-38
2024/02/12 03:27:53;;;;;;;4.10;1.85;;;;;;;13.12;70.08;98315.13;5033396;28;20025;-37
2024/02/12 03:30:19;;;;;;;7.65;2.05;;;;;;;12.97;69.85;98326.47;5033602;28;20028;-36
2024/02/12 03:32:44;;;;;;;4.80;1.92;;;;;;;12.80;70.04;98337.25;5032704;28;20021;-38
2024/02/12 03:35:10;;;;;;;2.58;1.27;;;;;;;12.48;71.09;98366.53;5033165;28;20017;-36
2024/02/12 03:37:35;;;;;;;3.83;1.58;;;;;;;12.40;70.81;98375.78;5033633;28;20026;-38
2024/02/12 03:40:04;;;;;;;4.10;1.65;;;;;;;12.26;70.82;98367.34;5033163;28;20342;-38
2024/02/12 03:42:30;;;;;;;3.97;1.77;;;;;;;12.18;71.91;98389.09;5033287;28;20025;-37
2024/02/12 03:44:55;;;;;;;13.05;1.73;;;;;;;12.18;71.82;98398.97;5033153;28;20439;-40
2024/02/12 03:47:27;;;;;;;3.78;1.48;;;;;;;12.32;71.19;98401.03;5028376;28;20127;-36
2024/02/12 04:00:51;;;;;;;2.33;1.00;;;;;;;11.65;77.66;98430.41;5024087;28;20067;-26
2024/02/12 04:03:18;;;;;;;3.60;1.17;;;;;;;11.64;79.10;98437.59;5033688;28;20021;-40
2024/02/12 04:05:43;;;;;;;2.60;1.10;;;;;;;11.43;81.29;98441.00;5032062;28;20021;-26
2024/02/12 04:08:09;;;;;;;2.03;1.20;;;;;;;11.42;83.02;98456.16;5032899;28;20474;-38
2024/02/12 04:10:37;;;;;;;4.75;1.27;;;;;;;11.09;85.08;98438.25;5032954;28;20021;-39
2024/02/12 04:13:04;;;;;;;3.35;1.13;;;;;;;11.02;86.71;98434.94;5033118;28;20049;-25
2024/02/12 04:15:30;;;;;;;8.15;1.60;;;;;;;10.95;88.86;98435.88;5032617;28;20382;-25
2024/02/12 04:17:56;;;;;;;4.63;1.50;;;;;;;10.83;89.69;98421.00;5032525;28;20080;-25
2024/02/12 04:20:22;;;;;;;2.55;1.05;;;;;;;10.59;90.42;98433.59;5032879;28;20025;-25
2024/02/12 04:22:48;;;;;;;4.03;0.98;;;;;;;10.43;91.81;98429.78;5032663;28;20022;-25
2024/02/12 04:25:14;;;;;;;2.40;1.20;;;;;;;10.30;92.51;98433.47;5032567;28;20025;-26
2024/02/12 04:27:41;;;;;;;4.35;1.30;;;;;;;10.39;93.49;98428.66;5032507;28;20462;-26
2024/02/12 04:30:08;;;;;;;2.15;1.10;;;;;;;10.43;92.97;98435.91;5032415;28;20682;-26
2024/02/12 04:32:34;;;;;;;2.28;1.20;;;;;;;10.37;92.46;98442.16;5031340;28;20473;-26
2024/02/12 04:35:01;;;;;;;5.40;1.20;;;;;;;10.62;92.27;98441.09;5032592;28;20135;-26
2024/02/12 04:37:28;;;;;;;5.32;1.42;;;;;;;10.67;91.58;98441.19;5032736;28;20026;-26
2024/02/12 04:39:53;;;;;;;3.13;0.90;;;;;;;10.62;90.82;98430.44;5052038;28;20025;-25
2024/02/12 04:42:21;;;;;;;2.85;0.93;;;;;;;10.56;91.06;98426.88;5052309;28;20028;-25
2024/02/12 04:44:46;;;;;;;2.88;0.93;;;;;;;10.38;92.10;98435.81;5051978;28;20392;-24
2024/02/12 04:47:12;;;;;;;2.63;0.88;;;;;;;10.81;90.88;98442.53;5032586;28;20029;-26
2024/02/12 04:49:37;;;;;;;4.05;1.00;;;;;;;10.80;90.16;98442.78;5031908;28;20116;-23
2024/02/12 04:52:04;;;;;;;2.70;0.60;;;;;;;10.97;89.01;98438.31;5031803;28;20055;-25
2024/02/12 04:54:29;;;;;;;1.98;0.93;;;;;;;11.04;88.20;98436.34;5031418;28;20022;-25
2024/02/12 04:56:55;;;;;;;3.15;1.10;;;;;;;11.02;87.56;98426.94;5031524;28;20524;-24
2024/02/12 04:59:21;;;;;;;4.97;1.20;;;;;;;11.01;88.11;98422.69;5031406;28;20025;-25
2024/02/12 05:01:46;;;;;;;3.90;1.30;;;;;;;11.12;87.41;98419.97;5031659;28;20038;-27
2024/02/12 05:04:12;;;;;;;3.63;1.20;;;;;;;11.13;88.20;98413.56;5031929;28;20018;-27
2024/02/12 05:06:37;;;;;;;1.65;1.10;;;;;;;11.81;91.65;98408.28;5031409;28;20018;-25
2024/02/12 05:09:10;;;;;;;1.60;1.20;;;;;;;11.57;87.14;98393.53;5031624;28;20458;-26
2024/02/12 05:11:36;;;;;;;2.15;1.15;;;;;;;11.49;86.53;98376.09;5031413;28;20036;-26
2024/02/12 05:14:01;;;;;;;3.35;1.30;;;;;;;11.52;86.19;98364.97;5031261;28;20018;-26
2024/02/12 05:16:32;;;;;;;3.08;0.90;;;;;;;11.42;84.80;98359.47;5031264;28;20166;-27
2024/02/12 05:24:33;;;;;;;2.80;1.20;;;;;;;11.82;90.52;98361.13;5011938;28;20108;-25
2024/02/12 05:26:58;;;;;;;2.75;0.88;;;;;;;11.68;84.44;98364.13;5011545;28;20077;-26
2024/02/12 05:29:24;;;;;;;3.13;1.25;;;;;;;11.54;84.16;98369.00;5011614;28;20053;-26
2024/02/12 05:31:52;;;;;;;3.30;1.80;;;;;;;11.37;85.56;98375.38;5037227;28;20028;-26
2024/02/12 05:34:23;;;;;;;1.92;1.40;;;;;;;11.53;83.93;98374.56;5033633;28;20163;-26
2024/02/12 05:36:49;;;;;;;2.67;1.42;;;;;;;11.54;84.20;98392.16;5045241;28;20112;-26
2024/02/12 05:39:16;;;;;;;3.00;1.63;;;;;;;11.25;86.57;98397.56;5051329;28;20156;-27
2024/02/12 05:41:42;;;;;;;4.32;1.80;;;;;;;10.85;89.37;98371.84;5050835;28;20059;-27
2024/02/12 05:44:07;;;;;;;6.82;2.85;;;;;;;11.03;89.35;98373.47;5050413;28;20056;-26
2024/02/12 05:46:34;;;;;;;7.53;3.10;;;;;;;11.05;88.79;98362.59;5044325;28;20040;-26
2024/02/12 05:49:00;;;;;;;5.55;3.30;;;;;;;11.19;88.04;98355.91;5042867;28;20031;-26
2024/02/12 05:51:26;;;;;;;7.40;3.38;;;;;;;11.04;86.78;98356.47;5042018;28;20056;-26
2024/02/12 05:53:51;;;;;;;6.30;2.67;;;;;;;11.11;86.96;98351.78;5033606;28;20037;-27
2024/02/12 05:56:17;;;;;;;5.43;2.40;;;;;;;11.44;85.41;98346.69;5039409;28;20021;-26
2024/02/12 05:58:43;;;;;;;6.50;2.75;;;;;;;11.51;83.73;98328.69;5040347;28;20036;-26
2024/02/12 06:01:11;;;;;;;4.72;2.40;;;;;;;10.96;86.77;98331.03;5013080;28;20025;-28
2024/02/12 06:03:36;;;;;;;3.72;2.10;;;;;;;10.92;87.53;98313.91;5031006;28;20091;-26
2024/02/12 06:06:02;;;;;;;5.97;3.10;;;;;;;11.00;87.95;98312.72;5031548;28;20029;-27
2024/02/12 06:08:28;;;;;;;9.77;4.13;;;;;;;11.00;88.51;98298.59;5030985;28;20032;-27
2024/02/12 06:10:53;;;;;;;5.13;3.13;;;;;;;11.08;89.00;98288.38;5030904;28;20014;-26
2024/02/12 06:13:18;;;;;;;7.45;3.28;;;;;;;11.08;90.34;98292.88;5031033;28;20466;-26
2024/02/12 06:15:44;;;;;;;7.95;3.70;;;;;;;11.40;89.12;98293.09;5031295;28;20017;-27
2024/02/12 06:18:10;;;;;;;5.07;2.60;;;;;;;11.42;88.76;98300.84;5030868;28;20060;-26
2024/02/12 06:20:35;;;;;;;5.13;2.90;;;;;;;11.14;89.09;98299.91;5031592;28;20116;-26
2024/02/12 06:23:01;;;;;;;5.13;2.50;;;;;;;11.11;89.14;98293.19;5023928;28;20125;-27
2024/02/12 06:25:26;;;;;;;4.22;2.60;;;;;;;11.02;89.78;98294.66;5028579;28;20018;-26
2024/02/12 06:27:52;;;;;;;4.85;2.58;;;;;;;10.71;91.53;98301.31;5011642;28;20101;-26
2024/02/12 06:30:17;;;;;;;4.95;2.53;;;;;;;10.41;91.53;98307.69;5029190;28;20410;-26
2024/02/12 06:32:43;;;;;;;7.00;2.85;;;;;;;10.26;93.33;98326.81;5031290;28;20022;-26
2024/02/12 06:35:08;;;;;;;5.95;2.42;;;;;;;10.46;93.00;98322.94;5031107;28;20108;-27
2024/02/12 06:37:35;;;;;;;6.68;3.00;;;;;;;10.60;92.75;98318.13;5018718;28;20022;-26
2024/02/12 06:40:00;;;;;;;7.05;3.58;;;;;;;10.91;90.14;98314.97;5029866;28;20030;-29
2024/02/12 06:42:26;;;;;;;8.65;3.75;;;;;;;10.77;89.73;98326.97;5030831;28;20033;-27
2024/02/12 06:44:51;;;;;;;9.38;3.90;;;;;;;11.05;89.21;98326.13;5030928;28;20563;-26
2024/02/12 06:47:16;;;;;;;9.68;5.15;;;;;;;11.01;89.47;98329.53;5031028;28;20460;-27
2024/02/12 06:49:45;;;;;;;12.13;6.20;;;;;;;10.84;91.19;98346.25;5030530;28;20071;-26
2024/02/12 06:52:10;;;;;;;9.60;4.68;;;;;;;11.16;88.35;98356.41;5029213;28;20087;-27
2024/02/12 06:54:36;;;;;;;6.07;3.42;;;;;;;11.31;87.12;98348.66;5030863;28;20038;-27
2024/02/12 06:57:02;;;;;;;10.57;4.30;;;;;;;11.11;88.48;98341.13;5035293;28;20033;-27
2024/02/12 06:59:27;;;;;;;8.75;3.47;;;;;;;11.26;86.95;98334.44;5034502;28;20026;-36
2024/02/12 07:01:52;;;;;;;8.48;3.88;;;;;;;11.22;87.06;98323.47;5034515;28;20036;-42
2024/02/12 07:04:18;;;;;;;10.88;4.97;;;;;;;11.27;86.61;98299.59;5034314;28;20026;-42
2024/02/12 07:06:43;;;;;;;6.85;4.13;;;;;;;11.27;87.35;98299.59;5023361;28;20512;-39
2024/02/12 07:09:09;;;;;;;12.68;4.50;;;;;;;11.27;88.66;98312.06;5014509;28;20033;-39
2024/02/12 07:11:34;;;;;;;7.47;4.47;;;;;;;11.12;88.93;98333.97;5014651;28;20168;-41
2024/02/12 07:14:00;;;;;;;12.82;6.30;;;;;;;11.32;88.47;98336.13;5014500;28;20410;-39
2024/02/12 07:16:30;;;;;;;11.07;5.22;;;;;;;11.42;86.35;98351.47;5014574;28;20246;-43
2024/02/12 07:19:05;;;;;;;10.63;5.22;;;;;;;11.34;87.71;98366.78;5013207;28;20101;-40
2024/02/12 07:21:30;;;;;;;11.35;4.60;;;;;;;11.31;88.67;98385.13;5014825;28;20076;-39
2024/02/12 07:23:55;;;;;;;9.02;4.28;;;;;;;11.45;87.80;98390.94;5014577;28;20247;-38
2024/02/12 07:26:21;;;;;;;6.68;3.88;;;;;;;11.53;86.89;98396.66;5013495;28;20100;-37
2024/02/12 07:28:49;;;;;;;9.85;4.40;;;;;;;11.53;86.04;98409.97;5014111;28;20024;-37
2024/02/12 07:31:15;;;;;;;10.30;4.50;;;;;;;11.66;85.87;98424.06;5014027;28;20053;-37
2024/02/12 07:33:40;;;;;;;8.95;4.60;;;;;;;11.66;86.23;98432.84;5014148;28;20058;-41
2024/02/12 07:36:06;;;;;;;10.90;4.57;;;;;;;11.59;87.26;98439.38;5014017;28;20033;-40
2024/02/12 07:38:32;;;;;;;13.98;4.57;;;;;;;11.45;88.21;98428.25;5013753;28;20404;-40
2024/02/12 07:40:58;;;;;;;8.93;4.63;;;;;;;11.68;86.65;98444.06;5013742;28;20068;-39
2024/02/12 07:43:28;;;;;;;8.15;3.90;;;;;;;11.72;86.19;98439.88;5013694;28;20026;-39
2024/02/12 07:45:54;;;;;;;10.23;4.80;;;;;;;11.58;86.37;98430.59;5022548;28;20025;-42
2024/02/12 07:48:20;;;;;;;12.23;5.90;;;;;;;11.79;86.04;98438.91;5033891;28;20041;-41
2024/02/12 07:50:45;;;;;;;11.90;5.55;;;;;;;11.70;87.13;98443.84;5033341;28;20091;-39
2024/02/12 07:53:11;;;;;;;12.88;5.10;;;;;;;11.79;85.71;98444.25;5033385;28;20521;-43
2024/02/12 07:55:36;;;;;;;9.90;5.03;;;;;;;11.84;86.04;98425.66;5033074;28;20339;-40
2024/02/12 07:58:02;;;;;;;16.33;7.40;;;;;;;12.19;83.86;98435.25;5033473;28;20512;-39
2024/02/12 08:00:31;;;;;;;20.63;9.27;;;;;;;12.15;85.01;98429.59;5033126;28;20021;-41
2024/02/12 08:02:56;;;;;;;20.95;7.90;;;;;;;12.06;85.74;98437.22;5033387;28;20029;-39
2024/02/12 08:05:22;;;;;;;12.75;5.78;;;;;;;12.21;84.54;98431.28;5033536;28;20029;-43
2024/02/12 08:07:47;;;;;;;11.57;5.65;;;;;;;12.26;83.96;98428.69;5033181;28;20516;-41
2024/02/12 08:10:15;;;;;;;15.32;6.90;;;;;;;12.26;83.54;98419.88;5032822;28;20033;-40
2024/02/12 08:12:42;;;;;;;16.45;5.30;;;;;;;12.34;83.02;98414.13;5033271;28;20098;-42
2024/02/12 08:15:09;;;;;;;14.77;7.18;;;;;;;12.48;82.48;98404.69;5032992;28;20039;-40
2024/02/12 08:17:35;;;;;;;14.73;6.10;;;;;;;12.47;81.52;98399.59;5032862;28;20049;-41
2024/02/12 08:20:04;;;;;;;12.05;6.63;;;;;;;12.51;82.05;98396.19;5032948;28;20032;-42
2024/02/12 08:22:30;;;;;;;10.25;6.15;;;;;;;12.55;83.12;98391.16;5032879;28;20026;-40
2024/02/12 08:24:56;;;;;;;13.73;6.60;;;;;;;12.59;84.10;98380.81;5033062;28;20052;-39
2024/02/12 08:27:21;;;;;;;13.57;6.70;;;;;;;12.82;82.82;98361.84;5033139;28;20022;-39
2024/02/12 08:29:50;;;;;;;11.43;6.63;;;;;;;13.17;79.23;98357.09;5033183;28;20101;-40
2024/02/12 08:32:16;;;;;;;16.60;9.35;;;;;;;13.54;80.13;98361.69;5033109;28;20029;-42
2024/02/12 08:34:41;;;;;;;17.88;11.02;;;;;;;14.08;78.86;98372.19;5033220;28;20040;-44
2024/02/12 08:37:10;;;;;;;18.65;7.20;;;;;;;14.24;71.88;98373.88;5033072;28;20025;-41
2024/02/12 08:39:41;;;;;;;14.30;6.60;;;;;;;14.40;72.26;98385.44;5033350;28;20033;-39
2024/02/12 08:42:06;;;;;;;15.63;6.30;;;;;;;14.83;71.73;98390.69;5032918;28;20280;-38
2024/02/12 08:44:32;;;;;;;9.35;5.25;;;;;;;14.89;68.90;98400.38;5032888;28;20547;-40
2024/02/12 08:46:59;;;;;;;12.05;5.60;;;;;;;15.40;67.51;98403.13;5032735;28;20040;-41
2024/02/12 08:49:26;;;;;;;8.75;5.13;;;;;;;15.62;64.95;98412.78;5033548;28;20087;-38
2024/02/12 08:51:51;;;;;;;12.07;5.05;;;;;;;15.45;63.59;98413.84;5032459;28;20045;-42
2024/02/12 08:54:17;;;;;;;12.15;5.30;;;;;;;16.00;62.89;98422.16;5032387;28;20462;-40
2024/02/12 08:56:42;;;;;;;11.07;4.60;;;;;;;15.96;60.11;98418.41;5032318;28;20087;-41
2024/02/12 08:59:07;;;;;;;9.43;4.43;;;;;;;16.10;61.24;98432.06;5032621;28;20032;-40
2024/02/12 09:01:34;;;;;;;14.40;5.10;;;;;;;15.96;60.37;98425.66;5032707;28;20025;-42
2024/02/12 09:04:00;;;;;;;9.57;3.40;;;;;;;16.46;58.67;98417.75;5032463;28;20112;-41
2024/02/12 09:06:26;;;;;;;8.90;3.17;;;;;;;16.42;57.26;98410.22;5032229;28;20097;-41
2024/02/12 09:08:51;;;;;;;11.52;3.40;;;;;;;16.87;56.61;98422.94;5032057;28;20033;-40
2024/02/12 09:11:17;;;;;;;7.20;2.42;;;;;;;16.97;55.47;98412.16;5032230;28;20033;-40
2024/02/12 09:13:43;;;;;;;9.10;3.13;;;;;;;17.26;54.67;98422.19;5032024;28;20029;-43
2024/02/12 09:16:08;;;;;;;6.93;2.70;;;;;;;17.25;54.20;98420.59;5032242;28;20105;-40
2024/02/12 09:18:37;;;;;;;8.30;2.90;;;;;;;17.32;53.89;98407.63;5031298;28;20050;-41
2024/02/12 09:21:03;;;;;;;11.30;2.97;;;;;;;17.36;54.22;98419.44;5031817;28;20030;-41
2024/02/12 09:23:29;;;;;;;18.33;3.40;;;;;;;17.72;54.02;98416.47;5031902;28;20095;-39
2024/02/12 09:25:56;;;;;;;8.15;2.50;;;;;;;17.63;53.34;98405.53;5031832;28;20028;-40
2024/02/12 09:28:23;;;;;;;6.88;2.38;;;;;;;17.64;52.94;98409.81;5031931;28;20029;-39
2024/02/12 09:30:49;;;;;;;10.43;2.40;;;;;;;17.49;52.84;98418.00;5031919;28;20563;-38
2024/02/12 09:33:15;;;;;;;5.53;2.28;;;;;;;17.34;52.80;98414.34;5031934;28;20025;-43
2024/02/12 09:35:41;;;;;;;9.38;3.03;;;;;;;17.58;52.00;98416.31;5031806;28;20036;-40
2024/02/12 09:38:08;;;;;;;13.93;2.95;;;;;;;17.51;53.62;98415.84;5031548;28;20029;-40
2024/02/12 09:40:34;;;;;;;13.75;2.65;;;;;;;17.81;52.84;98414.78;5031954;28;20025;-39
2024/02/12 09:43:00;;;;;;;8.60;2.75;;;;;;;18.00;51.40;98411.41;5031423;28;20378;-36
2024/02/12 09:45:31;;;;;;;13.25;3.58;;;;;;;17.86;53.03;98409.38;5031706;28;20036;-40
2024/02/12 09:48:00;;;;;;;12.43;2.20;;;;;;;17.97;50.89;98405.50;5031323;28;20040;-40
2024/02/12 09:50:29;;;;;;;9.30;2.13;;;;;;;18.04;51.11;98407.06;5031533;28;20033;-44
2024/02/12 09:52:58;;;;;;;8.33;2.20;;;;;;;18.14;50.29;98404.25;5031794;28;20029;-44
2024/02/12 09:55:25;;;;;;;15.55;2.60;;;;;;;18.04;50.63;98417.81;5031727;28;20268;-40
2024/02/12 09:57:51;;;;;;;9.00;2.10;;;;;;;18.12;51.74;98403.72;5031378;28;20033;-40
2024/02/12 10:00:19;;;;;;;10.35;2.38;;;;;;;18.04;51.38;98407.84;5031340;28;20580;-40
2024/02/12 10:02:45;;;;;;;8.95;2.72;;;;;;;18.21;51.37;98393.94;5031608;28;20029;-40
2024/02/12 10:05:20;;;;;;;16.92;2.92;;;;;;;17.87;51.18;98402.09;5031101;28;20029;-40
2024/02/12 10:07:46;;;;;;;10.43;2.47;;;;;;;18.16;50.86;98388.59;5031419;28;20420;-40
2024/02/12 10:10:13;;;;;;;13.90;2.42;;;;;;;18.15;50.03;98390.50;5031016;28;20491;-40
2024/02/12 10:12:39;;;;;;;11.13;2.90;;;;;;;18.20;49.30;98389.66;5031204;28;20499;-39
2024/02/12 10:15:05;;;;;;;11.32;2.40;;;;;;;18.20;50.06;98388.84;5031042;28;20503;-39
2024/02/12 10:17:31;;;;;;;13.27;2.47;;;;;;;18.83;47.93;98383.25;5030639;28;20053;-40
2024/02/12 10:19:57;;;;;;;14.23;2.70;;;;;;;18.58;49.12;98386.25;5031184;28;20048;-44
2024/02/12 10:22:23;;;;;;;10.95;2.50;;;;;;;18.70;48.78;98376.66;5030855;28;20433;-42
2024/02/12 10:24:49;;;;;;;12.18;2.90;;;;;;;18.83;48.39;98368.97;5031059;28;20557;-40
2024/02/12 10:27:15;;;;;;;13.32;2.50;;;;;;;18.92;47.21;98372.59;5031029;28;20033;-42
2024/02/12 10:29:41;;;;;;;9.30;2.20;;;;;;;18.69;48.28;98361.56;5031107;28;20032;-40
2024/02/12 10:32:09;;;;;;;13.75;2.00;;;;;;;18.86;48.26;98369.19;5034961;28;20048;-41
2024/02/12 10:34:41;;;;;;;15.67;2.13;;;;;;;19.01;48.30;98359.28;5035205;28;20044;-41
2024/02/12 10:37:09;;;;;;;11.25;1.77;;;;;;;19.22;46.65;98357.06;5035103;28;20033;-42
2024/02/12 10:39:37;;;;;;;9.02;2.67;;;;;;;18.71;46.99;98353.19;5035376;28;20036;-46
2024/02/12 10:42:08;;;;;;;12.30;2.20;;;;;;;18.53;46.90;98341.31;5034871;28;20057;-43
2024/02/12 10:44:34;;;;;;;24.83;4.63;;;;;;;18.52;47.05;98337.00;5035218;28;20097;-44
2024/02/12 10:47:00;;;;;;;15.30;2.80;;;;;;;18.51;46.77;98332.75;5034674;28;20120;-41
2024/02/12 10:49:26;;;;;;;9.70;3.08;;;;;;;18.09;47.30;98339.72;5034986;28;20374;-39
2024/02/12 10:51:54;;;;;;;14.15;2.30;;;;;;;18.38;46.16;98330.75;5034790;28;20032;-40
2024/02/12 10:54:22;;;;;;;11.68;2.42;;;;;;;18.28;47.95;98329.78;5035028;28;20068;-44
2024/02/12 10:56:48;;;;;;;10.48;1.90;;;;;;;18.24;47.74;98327.94;5034701;28;20053;-44
2024/02/12 10:59:14;;;;;;;12.35;1.90;;;;;;;18.62;46.50;98330.69;5033553;28;20497;-43
2024/02/12 11:01:39;;;;;;;12.52;2.20;;;;;;;18.50;46.88;98331.13;5034583;28;20099;-44
2024/02/12 11:04:06;;;;;;;14.30;2.22;;;;;;;18.84;46.80;98328.25;5034456;28;20083;-44
2024/02/12 11:06:40;;;;;;;16.65;2.42;;;;;;;19.12;45.74;98325.69;5034615;28;20025;-40
2024/02/12 11:09:12;;;;;;;18.42;2.70;;;;;;;18.65;46.51;98319.34;5034205;28;20170;-42
2024/02/12 11:11:47;;;;;;;12.70;2.35;;;;;;;19.16;44.71;98318.59;5034494;28;20086;-43
2024/02/12 11:14:15;;;;;;;10.45;2.28;;;;;;;19.05;44.32;98328.75;5034670;28;20025;-39
2024/02/12 11:16:41;;;;;;;15.15;2.50;;;;;;;19.33;43.03;98335.03;5033087;28;20112;-41
2024/02/12 11:19:16;;;;;;;19.95;2.28;;;;;;;19.07;43.61;98331.94;5034035;28;20128;-41
2024/02/12 11:21:41;;;;;;;7.97;2.10;;;;;;;18.99;44.17;98319.13;5034234;28;20516;-42
2024/02/12 11:24:07;;;;;;;5.88;1.90;;;;;;;19.04;42.74;98305.59;5033501;28;20041;-41
2024/02/12 11:26:43;;;;;;;12.77;2.30;;;;;;;19.54;40.94;98308.50;5034264;28;20493;-41
2024/02/12 11:29:11;;;;;;;12.63;2.67;;;;;;;19.41;41.90;98303.09;5034165;28;20021;-40
2024/02/12 11:31:40;;;;;;;17.70;6.70;;;;;;;19.79;42.16;98303.00;5033977;28;20379;-43
2024/02/12 11:34:19;;;;;;;10.35;2.20;;;;;;;19.93;41.51;98303.78;5033825;28;20025;-39
2024/02/12 11:36:55;;;;;;;13.07;2.10;;;;;;;19.56;39.40;98281.25;5034158;28;20021;-43
2024/02/12 11:39:21;;;;;;;14.02;1.95;;;;;;;19.50;38.70;98298.63;5033726;28;20459;-41
2024/02/12 11:41:47;;;;;;;14.18;2.20;;;;;;;19.30;37.36;98280.88;5033206;28;20029;-43
2024/02/12 11:44:14;;;;;;;10.60;2.20;;;;;;;19.17;37.12;98303.22;5033466;28;20104;-41
2024/02/12 11:46:40;;;;;;;10.90;2.20;;;;;;;19.28;35.82;98286.56;5033551;28;20050;-42